Time;durP1;ratioP1;P1;durP2;ratioP2;P2;SDS_P1;SDS_P2;PMS_P1;PMS_P2;Temp;Humidity;BMP_temperature;BMP_pressure;BME280_temperature;BME280_humidity;BME280_pressure;Samples;Min_cycle;Max_cycle;Signal;HPM_P1;HPM_P2
2021/07/24 00:01:29;;;;;;;6.85;2.78;;;;;;;;;;4177901;34;20132;-71
2021/07/24 00:03:55;;;;;;;4.40;2.42;;;;;;;;;;4177673;34;20133;-71
2021/07/24 00:06:21;;;;;;;5.50;2.72;;;;;;;;;;4164879;34;20114;-74
2021/07/24 00:08:47;;;;;;;4.05;2.62;;;;;;;;;;4176186;34;20118;-65
2021/07/24 00:11:12;;;;;;;7.70;2.75;;;;;;;;;;4177667;34;20122;-65
2021/07/24 00:13:39;;;;;;;4.30;2.87;;;;;;;;;;4164902;34;20121;-71
2021/07/24 00:16:05;;;;;;;9.38;3.05;;;;;;;;;;4177563;34;20519;-73
2021/07/24 00:18:51;;;;;;;9.60;2.67;;;;;;;;;;4177368;34;20130;-66
2021/07/24 00:21:25;;;;;;;3.40;2.62;;;;;;;;;;4177447;34;20462;-67
2021/07/24 00:23:51;;;;;;;3.47;2.83;;;;;;;;;;4177632;34;20106;-72
2021/07/24 00:26:17;;;;;;;3.92;2.72;;;;;;;;;;4164758;34;20087;-65
2021/07/24 00:28:43;;;;;;;3.62;3.00;;;;;;;;;;4177893;34;20518;-65
2021/07/24 00:31:09;;;;;;;4.30;2.83;;;;;;;;;;4177337;34;20533;-65
2021/07/24 00:33:35;;;;;;;5.20;2.80;;;;;;;;;;4176829;34;20110;-71
2021/07/24 00:36:01;;;;;;;9.93;2.83;;;;;;;;;;4177514;34;20149;-71
2021/07/24 00:38:27;;;;;;;5.22;2.40;;;;;;;;;;4177682;34;20133;-67
2021/07/24 00:40:55;;;;;;;5.35;2.97;;;;;;;;;;4165211;34;20145;-65
2021/07/24 00:43:25;;;;;;;4.47;2.50;;;;;;;;;;4175858;34;20122;-66
2021/07/24 00:45:51;;;;;;;5.80;2.50;;;;;;;;;;4164833;34;20621;-71
2021/07/24 00:48:19;;;;;;;4.72;2.58;;;;;;;;;;4165364;34;20470;-67
2021/07/24 00:50:53;;;;;;;4.47;2.85;;;;;;;;;;4164665;34;20168;-67
2021/07/24 00:53:34;;;;;;;12.90;3.08;;;;;;;;;;4177395;34;20529;-73
2021/07/24 00:56:00;;;;;;;5.65;2.78;;;;;;;;;;4177299;34;20537;-67
2021/07/24 00:58:31;;;;;;;5.07;2.80;;;;;;;;;;4164413;34;20466;-73
2021/07/24 01:00:58;;;;;;;5.78;2.70;;;;;;;;;;4177383;34;20115;-65
2021/07/24 01:03:23;;;;;;;4.78;2.92;;;;;;;;;;4176956;34;20113;-71
2021/07/24 01:05:51;;;;;;;3.85;2.80;;;;;;;;;;4164433;34;20125;-71
2021/07/24 01:08:17;;;;;;;4.60;2.90;;;;;;;;;;4177099;34;20124;-67
2021/07/24 01:10:43;;;;;;;7.70;2.70;;;;;;;;;;4164574;34;20122;-71
2021/07/24 01:13:10;;;;;;;4.07;2.45;;;;;;;;;;4164386;34;20129;-67
2021/07/24 01:15:37;;;;;;;4.87;2.70;;;;;;;;;;4164876;34;20125;-67
2021/07/24 01:18:03;;;;;;;5.75;2.80;;;;;;;;;;4176731;34;20123;-73
2021/07/24 01:20:29;;;;;;;7.68;2.83;;;;;;;;;;4176242;34;20119;-73
2021/07/24 01:22:56;;;;;;;6.72;2.80;;;;;;;;;;4164193;34;20521;-65
2021/07/24 01:25:22;;;;;;;4.93;2.72;;;;;;;;;;4164357;34;20114;-67
2021/07/24 01:27:48;;;;;;;3.35;2.55;;;;;;;;;;4176755;34;20137;-73
2021/07/24 01:30:14;;;;;;;7.65;2.65;;;;;;;;;;4176780;34;20217;-68
2021/07/24 01:32:39;;;;;;;4.97;2.92;;;;;;;;;;4177785;34;20129;-73
2021/07/24 01:35:06;;;;;;;3.85;2.95;;;;;;;;;;4176952;34;20517;-73
2021/07/24 01:37:32;;;;;;;3.40;2.60;;;;;;;;;;4176709;34;20113;-73
2021/07/24 01:39:58;;;;;;;4.78;2.80;;;;;;;;;;4164629;34;20416;-71
2021/07/24 01:42:24;;;;;;;11.65;2.87;;;;;;;;;;4176718;34;20117;-73
2021/07/24 01:44:49;;;;;;;7.47;2.78;;;;;;;;;;4165689;34;20247;-72
2021/07/24 01:47:15;;;;;;;3.83;2.33;;;;;;;;;;4178664;34;20454;-67
2021/07/24 01:53:08;;;;;;;5.35;2.55;;;;;;;;;;4178753;34;20512;-71
2021/07/24 01:55:53;;;;;;;8.02;2.78;;;;;;;;;;4167339;34;20136;-67
2021/07/24 01:58:30;;;;;;;5.55;2.45;;;;;;;;;;4174677;34;20090;-65
2021/07/24 02:00:56;;;;;;;4.28;2.65;;;;;;;;;;4166097;34;20222;-71
2021/07/24 02:03:21;;;;;;;5.03;2.40;;;;;;;;;;4176618;34;20145;-73
2021/07/24 02:05:48;;;;;;;3.78;2.50;;;;;;;;;;4163571;34;20137;-73
2021/07/24 02:08:24;;;;;;;5.03;2.55;;;;;;;;;;4164943;34;20206;-65
2021/07/24 02:10:50;;;;;;;6.00;2.50;;;;;;;;;;4165050;34;20115;-67
2021/07/24 02:13:18;;;;;;;4.05;2.33;;;;;;;;;;4175117;34;20126;-65
2021/07/24 02:15:44;;;;;;;4.12;2.83;;;;;;;;;;4163760;34;20178;-65
2021/07/24 02:18:15;;;;;;;4.70;2.62;;;;;;;;;;4163258;34;20106;-71
2021/07/24 02:20:41;;;;;;;4.37;2.50;;;;;;;;;;4163455;34;20512;-67
2021/07/24 02:23:30;;;;;;;12.55;2.85;;;;;;;;;;4163385;34;20551;-73
2021/07/24 02:25:57;;;;;;;9.25;2.78;;;;;;;;;;4164994;34;20122;-65
2021/07/24 02:28:23;;;;;;;6.28;2.87;;;;;;;;;;4164794;34;20103;-64
2021/07/24 02:30:49;;;;;;;3.10;2.45;;;;;;;;;;4164931;34;20554;-71
2021/07/24 02:33:15;;;;;;;5.30;2.53;;;;;;;;;;4163617;34;20189;-65
2021/07/24 02:35:41;;;;;;;3.97;2.40;;;;;;;;;;4164692;34;20126;-66
2021/07/24 02:38:06;;;;;;;3.35;2.62;;;;;;;;;;4164590;34;20102;-69
2021/07/24 02:40:33;;;;;;;3.87;2.90;;;;;;;;;;4164732;34;20129;-67
2021/07/24 02:42:59;;;;;;;6.72;3.90;;;;;;;;;;4165793;34;20121;-65
2021/07/24 02:45:25;;;;;;;5.93;3.47;;;;;;;;;;4164941;34;20440;-65
2021/07/24 02:47:51;;;;;;;5.80;3.30;;;;;;;;;;4163097;34;20153;-65
2021/07/24 02:50:17;;;;;;;6.20;3.25;;;;;;;;;;4165231;34;20218;-65
2021/07/24 02:52:43;;;;;;;5.53;2.87;;;;;;;;;;4163089;34;20118;-71
2021/07/24 02:55:09;;;;;;;4.57;2.92;;;;;;;;;;4163872;34;20154;-72
2021/07/24 02:57:35;;;;;;;4.78;2.87;;;;;;;;;;4164380;34;20125;-72
2021/07/24 03:00:02;;;;;;;5.78;2.97;;;;;;;;;;4163343;34;20139;-74
2021/07/24 03:02:28;;;;;;;6.30;3.50;;;;;;;;;;4174214;34;20122;-70
2021/07/24 03:04:54;;;;;;;4.10;2.95;;;;;;;;;;4164573;34;20123;-64
2021/07/24 03:07:20;;;;;;;4.15;2.22;;;;;;;;;;4164909;34;20208;-66
2021/07/24 03:09:46;;;;;;;5.55;2.45;;;;;;;;;;4164561;34;20146;-64
2021/07/24 03:12:12;;;;;;;2.97;2.60;;;;;;;;;;4164397;34;20146;-70
2021/07/24 03:14:38;;;;;;;3.22;2.20;;;;;;;;;;4164468;34;20137;-73
2021/07/24 03:17:04;;;;;;;2.90;2.12;;;;;;;;;;4164305;34;20107;-72
2021/07/24 03:19:30;;;;;;;6.32;2.42;;;;;;;;;;4164225;34;20118;-66
2021/07/24 03:21:56;;;;;;;5.65;2.90;;;;;;;;;;4162933;34;20127;-71
2021/07/24 03:24:22;;;;;;;3.08;2.35;;;;;;;;;;4164366;34;20125;-72
2021/07/24 03:26:48;;;;;;;3.10;2.22;;;;;;;;;;4165766;34;20095;-72
2021/07/24 03:29:14;;;;;;;5.62;3.20;;;;;;;;;;4164755;34;20278;-70
2021/07/24 03:31:39;;;;;;;3.03;2.08;;;;;;;;;;4164200;34;20138;-66
2021/07/24 03:34:05;;;;;;;3.47;2.33;;;;;;;;;;4162787;34;20684;-64
2021/07/24 03:36:31;;;;;;;7.37;2.50;;;;;;;;;;4164216;34;20221;-72
2021/07/24 03:38:57;;;;;;;5.62;2.53;;;;;;;;;;4164462;34;20119;-66
2021/07/24 03:41:27;;;;;;;3.17;2.10;;;;;;;;;;4163971;34;20514;-63
2021/07/24 03:43:53;;;;;;;3.40;2.40;;;;;;;;;;4164159;34;20099;-66
2021/07/24 03:46:21;;;;;;;3.70;2.30;;;;;;;;;;4164262;34;20097;-70
2021/07/24 03:48:47;;;;;;;2.85;2.20;;;;;;;;;;4164447;34;20130;-70
2021/07/24 03:51:13;;;;;;;3.00;2.42;;;;;;;;;;4164113;34;20121;-70
2021/07/24 03:53:39;;;;;;;3.40;2.33;;;;;;;;;;4151602;34;20122;-66
2021/07/24 03:56:06;;;;;;;3.33;2.30;;;;;;;;;;4164357;34;20119;-71
2021/07/24 03:58:32;;;;;;;7.97;2.47;;;;;;;;;;4163755;34;20103;-64
2021/07/24 04:01:00;;;;;;;2.08;1.90;;;;;;;;;;4162768;34;20109;-70
2021/07/24 04:03:26;;;;;;;6.60;2.50;;;;;;;;;;4172306;34;20206;-73
2021/07/24 04:05:52;;;;;;;4.18;2.15;;;;;;;;;;4178041;34;20237;-69
2021/07/24 04:08:18;;;;;;;3.67;2.40;;;;;;;;;;4177545;34;20557;-66
2021/07/24 04:10:44;;;;;;;5.45;2.30;;;;;;;;;;4178383;34;20110;-65
2021/07/24 04:13:10;;;;;;;2.72;2.20;;;;;;;;;;4177414;34;20117;-66
2021/07/24 04:15:36;;;;;;;13.00;2.30;;;;;;;;;;4165068;34;20521;-69
2021/07/24 04:18:04;;;;;;;4.15;1.95;;;;;;;;;;4164602;34;20129;-73
2021/07/24 04:23:40;;;;;;;5.32;2.28;;;;;;;;;;4180552;34;20487;-70
2021/07/24 04:26:06;;;;;;;3.75;1.87;;;;;;;;;;4176626;34;20304;-66
2021/07/24 04:28:32;;;;;;;3.55;2.65;;;;;;;;;;4176890;34;20125;-67
2021/07/24 04:31:09;;;;;;;6.75;2.30;;;;;;;;;;4170897;34;20132;-71
2021/07/24 04:33:35;;;;;;;5.00;1.98;;;;;;;;;;4164456;34;20126;-66
2021/07/24 04:36:01;;;;;;;8.75;2.30;;;;;;;;;;4177585;34;20118;-64
2021/07/24 04:38:27;;;;;;;4.07;2.35;;;;;;;;;;4177520;34;20294;-72
2021/07/24 04:40:53;;;;;;;3.35;2.10;;;;;;;;;;4177133;34;20140;-66
2021/07/24 04:43:19;;;;;;;7.12;2.97;;;;;;;;;;4177328;34;20506;-70
2021/07/24 04:45:45;;;;;;;7.28;2.40;;;;;;;;;;4177289;34;20213;-66
2021/07/24 04:48:11;;;;;;;7.60;2.50;;;;;;;;;;4164459;34;20183;-68
2021/07/24 04:51:03;;;;;;;7.62;2.83;;;;;;;;;;4177477;34;20464;-70
2021/07/24 04:53:29;;;;;;;6.10;2.75;;;;;;;;;;4163006;34;20102;-66
2021/07/24 04:55:55;;;;;;;6.05;3.03;;;;;;;;;;4164158;34;20142;-64
2021/07/24 04:58:25;;;;;;;5.40;2.33;;;;;;;;;;4152728;34;20214;-66
2021/07/24 05:01:03;;;;;;;5.72;2.80;;;;;;;;;;4164429;34;20079;-67
2021/07/24 05:04:04;;;;;;;5.93;3.10;;;;;;;;;;4166259;34;20195;-65
2021/07/24 05:06:32;;;;;;;9.23;3.10;;;;;;;;;;4176538;34;20506;-73
2021/07/24 05:08:58;;;;;;;5.53;2.75;;;;;;;;;;4177010;34;20442;-73
2021/07/24 05:11:24;;;;;;;3.30;1.92;;;;;;;;;;4164631;34;20113;-67
2021/07/24 05:13:50;;;;;;;2.50;2.17;;;;;;;;;;4177270;34;20454;-67
2021/07/24 05:16:36;;;;;;;7.40;2.67;;;;;;;;;;4178129;34;20121;-65
2021/07/24 05:19:28;;;;;;;4.18;2.80;;;;;;;;;;4166866;34;20110;-71
2021/07/24 05:21:54;;;;;;;11.02;3.70;;;;;;;;;;4182084;34;20209;-64
2021/07/24 05:24:20;;;;;;;9.10;3.92;;;;;;;;;;4190726;34;20188;-68
2021/07/24 05:26:46;;;;;;;8.05;3.50;;;;;;;;;;4190378;34;20148;-70
2021/07/24 05:29:12;;;;;;;7.78;3.80;;;;;;;;;;4177801;34;20113;-67
2021/07/24 05:31:38;;;;;;;4.32;3.10;;;;;;;;;;4190565;34;20130;-65
2021/07/24 05:34:04;;;;;;;5.43;3.05;;;;;;;;;;4190226;34;20149;-69
2021/07/24 05:36:30;;;;;;;4.62;2.40;;;;;;;;;;4190275;34;20133;-65
2021/07/24 05:38:56;;;;;;;6.47;2.95;;;;;;;;;;4190740;34;20134;-67
2021/07/24 05:41:22;;;;;;;11.60;3.53;;;;;;;;;;4190321;34;20219;-68
2021/07/24 05:43:48;;;;;;;6.55;3.67;;;;;;;;;;4190324;34;20489;-65
2021/07/24 05:46:14;;;;;;;6.87;3.53;;;;;;;;;;4190488;34;20128;-67
2021/07/24 05:48:40;;;;;;;8.73;3.90;;;;;;;;;;4190392;34;20145;-68
2021/07/24 05:51:07;;;;;;;9.02;3.83;;;;;;;;;;4190464;34;20216;-73
2021/07/24 05:53:33;;;;;;;7.70;3.03;;;;;;;;;;4189923;34;20082;-65
2021/07/24 05:56:00;;;;;;;8.55;3.90;;;;;;;;;;4188696;34;20126;-71
2021/07/24 05:58:26;;;;;;;6.00;2.60;;;;;;;;;;4189552;34;20197;-67
2021/07/24 06:00:51;;;;;;;3.97;2.85;;;;;;;;;;4189633;34;20217;-70
2021/07/24 06:03:17;;;;;;;8.80;2.78;;;;;;;;;;4189518;34;20134;-64
2021/07/24 06:05:43;;;;;;;3.67;2.15;;;;;;;;;;4189503;34;20117;-72
2021/07/24 06:08:09;;;;;;;5.43;2.65;;;;;;;;;;4189108;34;20122;-65
2021/07/24 06:10:35;;;;;;;5.20;2.67;;;;;;;;;;4190186;34;20138;-70
2021/07/24 06:13:01;;;;;;;4.22;2.53;;;;;;;;;;4190058;34;20144;-72
2021/07/24 06:15:28;;;;;;;5.72;2.60;;;;;;;;;;4190058;34;20466;-71
2021/07/24 06:17:54;;;;;;;4.97;2.22;;;;;;;;;;4190453;34;20126;-70
2021/07/24 06:20:20;;;;;;;2.40;2.20;;;;;;;;;;4203786;34;20588;-69
2021/07/24 06:22:45;;;;;;;5.60;2.70;;;;;;;;;;4203417;34;20137;-71
2021/07/24 06:25:12;;;;;;;9.32;4.03;;;;;;;;;;4191330;34;20129;-70
2021/07/24 06:27:40;;;;;;;6.15;2.80;;;;;;;;;;4203619;34;20130;-66
2021/07/24 06:30:07;;;;;;;6.12;3.00;;;;;;;;;;4203980;34;20109;-65
2021/07/24 06:32:32;;;;;;;9.25;3.30;;;;;;;;;;4206275;34;20180;-69
2021/07/24 06:34:58;;;;;;;2.87;2.40;;;;;;;;;;4205894;34;20114;-66
2021/07/24 06:37:24;;;;;;;4.10;2.80;;;;;;;;;;4205848;34;20185;-66
2021/07/24 06:39:51;;;;;;;6.00;2.50;;;;;;;;;;4205837;34;20109;-70
2021/07/24 06:42:17;;;;;;;2.75;2.30;;;;;;;;;;4193104;34;20190;-65
2021/07/24 06:44:43;;;;;;;3.78;2.20;;;;;;;;;;4205812;34;20133;-66
2021/07/24 06:47:09;;;;;;;3.78;2.30;;;;;;;;;;4205630;34;20212;-70
2021/07/24 06:49:35;;;;;;;3.00;2.17;;;;;;;;;;4205831;34;20130;-68
2021/07/24 06:52:00;;;;;;;4.60;2.80;;;;;;;;;;4205772;34;20221;-66
2021/07/24 06:54:26;;;;;;;3.65;2.45;;;;;;;;;;4192176;34;20153;-70
2021/07/24 06:56:52;;;;;;;4.82;2.37;;;;;;;;;;4192047;34;20094;-66
2021/07/24 06:59:18;;;;;;;3.05;2.30;;;;;;;;;;4180338;34;20540;-71
2021/07/24 07:01:44;;;;;;;3.37;2.62;;;;;;;;;;4191917;34;20146;-71
2021/07/24 07:04:10;;;;;;;3.45;2.72;;;;;;;;;;4191830;34;20548;-70
2021/07/24 07:06:39;;;;;;;5.80;2.40;;;;;;;;;;4191872;34;20125;-72
2021/07/24 07:09:05;;;;;;;6.45;2.70;;;;;;;;;;4191786;34;20093;-66
2021/07/24 07:11:31;;;;;;;3.40;2.28;;;;;;;;;;4191613;34;20106;-71
2021/07/24 07:13:57;;;;;;;5.30;2.85;;;;;;;;;;4191807;34;20124;-70
2021/07/24 07:16:23;;;;;;;6.95;2.72;;;;;;;;;;4178830;34;20129;-68
2021/07/24 07:18:50;;;;;;;7.05;2.65;;;;;;;;;;4192220;34;20101;-70
2021/07/24 07:21:17;;;;;;;7.37;2.97;;;;;;;;;;4205493;34;20170;-69
2021/07/24 07:23:43;;;;;;;4.82;2.72;;;;;;;;;;4192899;34;20117;-71
2021/07/24 07:26:11;;;;;;;2.55;2.30;;;;;;;;;;4205411;34;20114;-68
2021/07/24 07:28:37;;;;;;;2.87;2.40;;;;;;;;;;4193010;34;20422;-69
2021/07/24 07:31:03;;;;;;;5.85;2.78;;;;;;;;;;4192541;34;20140;-69
2021/07/24 07:33:29;;;;;;;4.22;2.80;;;;;;;;;;4205726;34;20229;-71
2021/07/24 07:35:54;;;;;;;7.90;2.70;;;;;;;;;;4205251;34;20102;-69
2021/07/24 07:38:20;;;;;;;2.85;2.42;;;;;;;;;;4205315;34;20125;-66
2021/07/24 07:40:46;;;;;;;16.42;3.87;;;;;;;;;;4192159;34;20226;-71
2021/07/24 07:43:12;;;;;;;2.47;1.80;;;;;;;;;;4192463;34;20549;-71
2021/07/24 07:45:40;;;;;;;3.87;1.83;;;;;;;;;;4205163;34;20102;-66
2021/07/24 07:48:06;;;;;;;3.28;2.00;;;;;;;;;;4192927;34;20122;-68
2021/07/24 07:50:32;;;;;;;2.75;2.12;;;;;;;;;;4205373;34;20118;-71
2021/07/24 07:52:58;;;;;;;2.33;2.10;;;;;;;;;;4205134;34;20186;-71
2021/07/24 07:55:24;;;;;;;5.37;2.03;;;;;;;;;;4206383;34;20125;-71
2021/07/24 07:57:50;;;;;;;2.22;1.95;;;;;;;;;;4197216;34;20094;-65
2021/07/24 08:00:16;;;;;;;2.25;1.92;;;;;;;;;;4191697;34;20122;-71
2021/07/24 08:02:42;;;;;;;4.30;1.92;;;;;;;;;;4191515;34;20113;-70
2021/07/24 08:05:08;;;;;;;3.42;2.10;;;;;;;;;;4191984;34;20125;-68
2021/07/24 08:07:34;;;;;;;6.32;2.12;;;;;;;;;;4191279;34;20110;-71
2021/07/24 08:10:00;;;;;;;2.90;2.20;;;;;;;;;;4191310;34;20130;-68
2021/07/24 08:12:26;;;;;;;8.00;1.92;;;;;;;;;;4191109;34;20137;-66
2021/07/24 08:14:52;;;;;;;2.45;2.05;;;;;;;;;;4191340;34;20465;-69
2021/07/24 08:17:19;;;;;;;2.10;1.90;;;;;;;;;;4191227;34;20213;-72
2021/07/24 08:19:45;;;;;;;4.43;2.10;;;;;;;;;;4195677;34;20101;-68
2021/07/24 08:22:11;;;;;;;3.22;2.45;;;;;;;;;;4191923;34;20129;-66
2021/07/24 08:24:37;;;;;;;4.12;2.08;;;;;;;;;;4192199;34;20126;-71
2021/07/24 08:27:03;;;;;;;2.05;1.50;;;;;;;;;;4204871;34;20233;-68
2021/07/24 08:29:29;;;;;;;3.60;1.92;;;;;;;;;;4192029;34;20153;-71
2021/07/24 08:31:55;;;;;;;5.32;1.92;;;;;;;;;;4204748;34;20098;-71
2021/07/24 08:34:21;;;;;;;3.17;2.22;;;;;;;;;;4205034;34;20230;-71
2021/07/24 08:36:47;;;;;;;5.60;2.78;;;;;;;;;;4204654;34;20128;-71
2021/07/24 08:39:12;;;;;;;1.67;1.58;;;;;;;;;;4192063;34;20461;-71
2021/07/24 08:41:40;;;;;;;8.15;2.40;;;;;;;;;;4204827;34;20117;-70
2021/07/24 08:44:06;;;;;;;4.10;2.37;;;;;;;;;;4192219;34;20136;-70
2021/07/24 08:46:32;;;;;;;4.07;2.12;;;;;;;;;;4191794;34;20117;-70
2021/07/24 08:48:58;;;;;;;4.68;2.22;;;;;;;;;;4191991;34;20133;-70
2021/07/24 08:51:24;;;;;;;2.72;2.22;;;;;;;;;;4191983;34;20519;-70
2021/07/24 08:53:50;;;;;;;2.62;1.70;;;;;;;;;;4179634;34;20145;-68
2021/07/24 08:56:18;;;;;;;2.10;1.90;;;;;;;;;;4204561;34;20109;-70
2021/07/24 08:58:45;;;;;;;2.10;1.90;;;;;;;;;;4191931;34;20450;-70
2021/07/24 09:01:17;;;;;;;3.78;2.20;;;;;;;;;;4191669;34;20503;-70
2021/07/24 09:03:43;;;;;;;2.30;2.10;;;;;;;;;;4191739;34;20168;-70
2021/07/24 09:06:09;;;;;;;5.57;2.20;;;;;;;;;;4204302;34;20582;-70
2021/07/24 09:08:34;;;;;;;6.62;2.28;;;;;;;;;;4191602;34;20137;-69
2021/07/24 09:11:01;;;;;;;2.10;1.90;;;;;;;;;;4191473;34;20137;-70
2021/07/24 09:13:26;;;;;;;2.00;1.65;;;;;;;;;;4191793;34;20132;-70
2021/07/24 09:15:53;;;;;;;6.85;2.55;;;;;;;;;;4191409;34;20133;-70
2021/07/24 09:18:20;;;;;;;5.65;2.17;;;;;;;;;;4204281;34;20103;-70
2021/07/24 09:20:46;;;;;;;3.83;2.30;;;;;;;;;;4204195;34;20132;-70
2021/07/24 09:23:28;;;;;;;2.58;1.80;;;;;;;;;;4204360;34;20125;-70
2021/07/24 09:25:55;;;;;;;3.70;2.25;;;;;;;;;;4204331;34;20121;-71
2021/07/24 09:28:21;;;;;;;3.53;2.25;;;;;;;;;;4191271;34;20106;-70
2021/07/24 09:30:47;;;;;;;3.58;2.35;;;;;;;;;;4204374;34;20130;-67
2021/07/24 09:33:14;;;;;;;3.00;2.47;;;;;;;;;;4204094;34;20297;-68
2021/07/24 09:35:43;;;;;;;5.82;2.87;;;;;;;;;;4204077;34;20093;-68
2021/07/24 09:38:30;;;;;;;3.47;2.37;;;;;;;;;;4203956;34;20121;-70
2021/07/24 09:40:57;;;;;;;5.03;2.60;;;;;;;;;;4204230;34;20196;-70
2021/07/24 09:43:36;;;;;;;4.30;2.55;;;;;;;;;;4191493;34;20106;-70
2021/07/24 09:46:11;;;;;;;4.28;2.15;;;;;;;;;;4204238;34;20129;-70
2021/07/24 09:48:37;;;;;;;;;;;;;;;;;;4204446;34;20104;-70
2021/07/24 09:51:03;;;;;;;3.70;2.12;;;;;;;;;;4191389;34;19989;-70
2021/07/24 09:53:35;;;;;;;2.20;1.70;;;;;;;;;;4191235;34;20122;-70
2021/07/24 09:56:01;;;;;;;3.20;2.37;;;;;;;;;;4203925;34;20140;-71
2021/07/24 09:58:27;;;;;;;2.50;1.90;;;;;;;;;;4191141;34;20098;-71
2021/07/24 10:01:04;;;;;;;1.70;1.60;;;;;;;;;;4190954;34;20129;-70
2021/07/24 10:03:31;;;;;;;6.28;1.92;;;;;;;;;;4204029;34;20185;-70
2021/07/24 10:05:56;;;;;;;2.05;1.80;;;;;;;;;;4205704;34;20123;-71
2021/07/24 10:08:22;;;;;;;3.58;2.28;;;;;;;;;;4193305;34;20221;-71
2021/07/24 10:10:51;;;;;;;2.33;1.60;;;;;;;;;;4192982;34;20133;-70
2021/07/24 10:13:16;;;;;;;2.15;1.67;;;;;;;;;;4205947;34;20521;-70
2021/07/24 10:15:45;;;;;;;3.22;2.37;;;;;;;;;;4206010;34;20145;-65
2021/07/24 10:18:12;;;;;;;2.62;1.90;;;;;;;;;;4205658;34;20213;-65
2021/07/24 10:20:40;;;;;;;5.20;2.30;;;;;;;;;;4193095;34;20095;-65
2021/07/24 10:23:06;;;;;;;2.08;1.87;;;;;;;;;;4205532;34;20238;-65
2021/07/24 10:26:17;;;;;;;2.22;1.98;;;;;;;;;;4193070;34;20121;-66
2021/07/24 10:29:04;;;;;;;2.47;1.90;;;;;;;;;;4188638;34;20098;-66
2021/07/24 10:31:43;;;;;;;7.78;2.22;;;;;;;;;;4193359;34;20113;-68
2021/07/24 10:34:11;;;;;;;2.25;1.83;;;;;;;;;;4206446;34;20201;-70
2021/07/24 10:36:38;;;;;;;2.55;2.00;;;;;;;;;;4193097;34;20118;-70
2021/07/24 10:39:08;;;;;;;2.28;1.98;;;;;;;;;;4193035;34;20105;-68
2021/07/24 10:41:35;;;;;;;4.95;2.35;;;;;;;;;;4205993;34;20110;-68
2021/07/24 10:44:10;;;;;;;2.15;1.77;;;;;;;;;;4192860;34;20122;-67
2021/07/24 10:46:44;;;;;;;7.25;2.00;;;;;;;;;;4205644;34;20132;-70
2021/07/24 10:49:33;;;;;;;1.80;1.62;;;;;;;;;;4205970;34;20201;-67
2021/07/24 10:52:00;;;;;;;2.90;2.10;;;;;;;;;;4185398;34;20133;-68
2021/07/24 10:54:26;;;;;;;3.55;2.15;;;;;;;;;;4205776;34;20117;-67
2021/07/24 10:56:52;;;;;;;2.67;2.05;;;;;;;;;;4205355;34;20123;-67
2021/07/24 10:59:28;;;;;;;3.60;2.05;;;;;;;;;;4192609;34;20129;-68
2021/07/24 11:01:56;;;;;;;2.20;2.00;;;;;;;;;;4205690;34;20132;-69
2021/07/24 11:04:37;;;;;;;2.65;1.90;;;;;;;;;;4192863;34;20101;-68
2021/07/24 11:07:13;;;;;;;3.50;2.30;;;;;;;;;;4205456;34;20113;-68
2021/07/24 11:09:45;;;;;;;3.62;2.37;;;;;;;;;;4205603;34;20129;-68
2021/07/24 11:12:14;;;;;;;2.03;1.85;;;;;;;;;;4193154;34;20454;-68
2021/07/24 11:14:43;;;;;;;2.20;1.95;;;;;;;;;;4205679;34;20098;-67
2021/07/24 11:17:13;;;;;;;2.55;2.00;;;;;;;;;;4204907;34;20126;-69
2021/07/24 11:19:42;;;;;;;3.08;2.25;;;;;;;;;;4205767;34;20104;-68
2021/07/24 11:22:24;;;;;;;1.75;1.58;;;;;;;;;;4205308;34;20580;-67
2021/07/24 11:24:50;;;;;;;2.17;1.98;;;;;;;;;;4205747;34;20530;-68
2021/07/24 11:27:25;;;;;;;2.85;1.67;;;;;;;;;;4205330;34;20479;-67
2021/07/24 11:29:51;;;;;;;2.90;1.50;;;;;;;;;;4205326;34;20157;-69
2021/07/24 11:32:24;;;;;;;4.70;2.33;;;;;;;;;;4205590;34;20462;-68
2021/07/24 11:34:57;;;;;;;2.05;1.85;;;;;;;;;;4192369;34;20123;-66
2021/07/24 11:37:44;;;;;;;4.35;2.20;;;;;;;;;;4205090;34;20098;-66
2021/07/24 11:40:20;;;;;;;2.65;2.20;;;;;;;;;;4192827;34;20114;-69
2021/07/24 11:43:08;;;;;;;3.42;2.00;;;;;;;;;;4192574;34;20169;-70
2021/07/24 11:45:35;;;;;;;2.20;1.48;;;;;;;;;;4205140;34;20098;-70
2021/07/24 11:48:07;;;;;;;1.10;1.10;;;;;;;;;;4192154;34;20164;-70
2021/07/24 11:50:33;;;;;;;3.33;2.33;;;;;;;;;;4205145;34;20148;-70
2021/07/24 11:52:59;;;;;;;3.10;2.17;;;;;;;;;;4192369;34;20118;-70
2021/07/24 11:55:25;;;;;;;2.75;1.92;;;;;;;;;;4192463;34;20621;-71
2021/07/24 11:58:10;;;;;;;2.97;2.10;;;;;;;;;;4205193;34;20121;-71
2021/07/24 12:00:38;;;;;;;3.55;2.03;;;;;;;;;;4205030;34;20126;-71
2021/07/24 12:03:23;;;;;;;7.03;2.25;;;;;;;;;;4192203;34;20528;-70
2021/07/24 12:05:50;;;;;;;;;;;;;;;;;;4205662;34;20100;-68
2021/07/24 12:08:18;;;;;;;3.05;2.12;;;;;;;;;;4205136;34;19973;-69
2021/07/24 12:10:45;;;;;;;2.08;1.75;;;;;;;;;;4192292;34;20094;-64
2021/07/24 12:13:11;;;;;;;2.53;2.12;;;;;;;;;;4192267;34;20229;-68
2021/07/24 12:15:56;;;;;;;3.20;2.20;;;;;;;;;;4192635;34;20457;-69
2021/07/24 12:18:22;;;;;;;4.50;1.95;;;;;;;;;;4205795;34;20124;-68
2021/07/24 12:20:49;;;;;;;2.40;2.20;;;;;;;;;;4192473;34;20449;-68
2021/07/24 12:23:19;;;;;;;1.75;1.62;;;;;;;;;;4192321;34;20110;-67
2021/07/24 12:25:45;;;;;;;2.15;1.95;;;;;;;;;;4205092;34;20527;-64
2021/07/24 12:28:28;;;;;;;4.00;2.15;;;;;;;;;;4179914;34;20477;-69
2021/07/24 12:30:59;;;;;;;2.47;2.03;;;;;;;;;;4205137;34;20197;-67
2021/07/24 12:33:47;;;;;;;2.42;1.98;;;;;;;;;;4191919;34;20129;-69
2021/07/24 12:36:14;;;;;;;2.40;1.75;;;;;;;;;;4205004;34;20157;-67
2021/07/24 12:38:40;;;;;;;2.70;1.92;;;;;;;;;;4192433;34;20129;-71
2021/07/24 12:41:06;;;;;;;1.67;1.58;;;;;;;;;;4191968;34;20205;-70
2021/07/24 12:43:32;;;;;;;2.37;2.17;;;;;;;;;;4204880;34;20114;-65
2021/07/24 12:46:12;;;;;;;1.70;1.50;;;;;;;;;;4204689;34;20468;-71
2021/07/24 12:48:42;;;;;;;4.28;1.95;;;;;;;;;;4192005;34;20099;-68
2021/07/24 12:51:16;;;;;;;3.08;2.05;;;;;;;;;;4205038;34;20697;-70
2021/07/24 12:53:48;;;;;;;2.20;1.80;;;;;;;;;;4204862;34;20097;-70
2021/07/24 12:56:14;;;;;;;2.10;1.67;;;;;;;;;;4204943;34;20641;-68
2021/07/24 12:58:40;;;;;;;1.62;1.52;;;;;;;;;;4204612;34;20125;-68
2021/07/24 13:01:09;;;;;;;2.05;1.77;;;;;;;;;;4204463;34;20126;-70
2021/07/24 13:03:35;;;;;;;7.95;2.15;;;;;;;;;;4191778;34;20107;-66
2021/07/24 13:06:01;;;;;;;2.25;1.65;;;;;;;;;;4204479;34;20209;-65
2021/07/24 13:08:28;;;;;;;3.08;1.92;;;;;;;;;;4191905;34;20438;-66
2021/07/24 13:10:54;;;;;;;6.32;2.20;;;;;;;;;;4204388;34;20128;-67
2021/07/24 13:13:19;;;;;;;5.75;2.17;;;;;;;;;;4204718;34;20517;-68
2021/07/24 13:15:45;;;;;;;2.05;1.77;;;;;;;;;;4204735;34;20149;-69
2021/07/24 13:18:11;;;;;;;4.30;2.12;;;;;;;;;;4204208;34;20136;-70
2021/07/24 13:20:37;;;;;;;2.42;1.95;;;;;;;;;;4204396;34;20216;-65
2021/07/24 13:23:03;;;;;;;2.67;2.00;;;;;;;;;;4204042;34;20132;-67
2021/07/24 13:28:19;;;;;;;3.70;2.37;;;;;;;;;;4192067;34;20133;-65
2021/07/24 13:30:46;;;;;;;2.30;1.92;;;;;;;;;;4204541;34;20121;-65
2021/07/24 13:33:13;;;;;;;4.60;1.80;;;;;;;;;;4204330;34;20137;-64
2021/07/24 13:35:41;;;;;;;2.67;2.05;;;;;;;;;;4191516;34;20099;-65
2021/07/24 13:38:07;;;;;;;1.92;1.70;;;;;;;;;;4204004;34;20616;-65
2021/07/24 13:40:32;;;;;;;2.00;1.73;;;;;;;;;;4193140;34;20132;-70
2021/07/24 13:43:01;;;;;;;2.08;1.65;;;;;;;;;;4206371;34;20468;-70
2021/07/24 13:45:27;;;;;;;1.67;1.42;;;;;;;;;;4206492;34;20117;-70
2021/07/24 13:47:54;;;;;;;3.10;2.30;;;;;;;;;;4193119;34;20117;-69
2021/07/24 13:50:19;;;;;;;4.57;1.92;;;;;;;;;;4206306;34;20098;-66
2021/07/24 13:52:45;;;;;;;4.55;2.70;;;;;;;;;;4206318;34;20117;-69
2021/07/24 13:55:11;;;;;;;4.20;2.30;;;;;;;;;;4206586;34;20138;-66
2021/07/24 13:57:37;;;;;;;3.25;2.35;;;;;;;;;;4206168;34;20572;-72
2021/07/24 14:00:07;;;;;;;5.07;2.25;;;;;;;;;;4206604;34;20109;-67
2021/07/24 14:02:33;;;;;;;4.57;1.98;;;;;;;;;;4206399;34;20106;-69
2021/07/24 14:04:59;;;;;;;6.90;2.05;;;;;;;;;;4206057;34;20306;-69
2021/07/24 14:07:25;;;;;;;6.45;2.90;;;;;;;;;;4206406;34;20130;-71
2021/07/24 14:09:57;;;;;;;4.72;3.03;;;;;;;;;;4206331;34;20408;-67
2021/07/24 14:12:23;;;;;;;2.60;2.08;;;;;;;;;;4206212;34;20118;-69
2021/07/24 14:14:49;;;;;;;3.33;2.65;;;;;;;;;;4206136;34;20527;-72
2021/07/24 14:17:15;;;;;;;6.22;2.95;;;;;;;;;;4206016;34;20456;-69
2021/07/24 14:19:41;;;;;;;4.97;3.00;;;;;;;;;;4206120;34;20102;-69
2021/07/24 14:22:07;;;;;;;6.62;3.25;;;;;;;;;;4193108;34;20114;-68
2021/07/24 14:24:33;;;;;;;15.00;3.40;;;;;;;;;;4206065;34;20473;-71
2021/07/24 14:26:59;;;;;;;7.10;3.78;;;;;;;;;;4205967;34;20472;-70
2021/07/24 14:29:25;;;;;;;6.50;3.00;;;;;;;;;;4206071;34;20133;-69
2021/07/24 14:31:51;;;;;;;5.45;3.20;;;;;;;;;;4205966;34;20121;-71
2021/07/24 14:34:17;;;;;;;7.07;3.17;;;;;;;;;;4205852;34;20133;-69
2021/07/24 14:36:43;;;;;;;6.80;3.12;;;;;;;;;;4206604;34;20209;-71
2021/07/24 14:39:16;;;;;;;5.60;3.08;;;;;;;;;;4205849;34;20145;-72
2021/07/24 14:41:45;;;;;;;2.95;2.20;;;;;;;;;;4193490;34;20212;-70
2021/07/24 14:44:20;;;;;;;8.43;4.03;;;;;;;;;;4205939;34;20122;-70
2021/07/24 14:46:46;;;;;;;6.12;3.65;;;;;;;;;;4206013;34;20536;-65
2021/07/24 14:49:12;;;;;;;5.00;3.10;;;;;;;;;;4193108;34;20121;-70
2021/07/24 14:51:39;;;;;;;5.32;2.90;;;;;;;;;;4192080;34;20477;-69
2021/07/24 14:54:05;;;;;;;3.50;2.58;;;;;;;;;;4206057;34;20095;-71
2021/07/24 14:56:31;;;;;;;4.60;3.15;;;;;;;;;;4205759;34;20132;-71
2021/07/24 14:58:57;;;;;;;4.35;3.10;;;;;;;;;;4205651;34;20293;-71